createdAt,value
2019-03-12T00:01:36.170Z,0.00
2019-03-12T00:02:36.376Z,0.00
2019-03-12T00:03:36.143Z,0.00
2019-03-12T00:04:36.135Z,0.00
2019-03-12T00:05:36.122Z,0.00
2019-03-12T00:46:10.356Z,0.00
2019-03-12T00:47:10.345Z,0.00
2019-03-12T01:25:30.561Z,0.00
2019-03-12T01:26:30.451Z,0.00
2019-03-12T01:27:30.437Z,0.00
2019-03-12T01:28:30.444Z,0.00
2019-03-12T01:29:30.413Z,0.00
2019-03-12T01:30:30.409Z,0.00
2019-03-12T01:31:30.391Z,0.00
2019-03-12T01:32:30.382Z,0.00
2019-03-12T01:33:30.370Z,0.00
2019-03-12T01:34:30.359Z,0.00
2019-03-12T01:35:30.345Z,0.00
2019-03-12T01:36:30.339Z,0.00
2019-03-12T01:37:30.339Z,0.00
2019-03-12T01:38:30.314Z,0.00
2019-03-12T01:39:30.301Z,0.00
2019-03-12T01:40:30.295Z,0.00
2019-03-12T01:41:30.280Z,0.00
2019-03-12T01:42:30.284Z,0.00
2019-03-12T01:43:30.262Z,0.00
2019-03-12T01:44:30.250Z,0.00
2019-03-12T01:46:57.723Z,0.00
2019-03-12T01:47:57.714Z,0.00
2019-03-12T01:48:57.698Z,0.00
2019-03-12T01:49:57.690Z,0.00
2019-03-12T01:50:57.677Z,0.00
2019-03-12T01:51:57.668Z,0.00
2019-03-12T01:52:57.655Z,0.00
2019-03-12T01:53:57.652Z,0.00
2019-03-12T01:54:57.634Z,0.00
2019-03-12T01:55:57.627Z,0.00
2019-03-12T01:56:57.613Z,0.00
2019-03-12T01:57:57.605Z,0.00
2019-03-12T01:58:57.591Z,0.00
2019-03-12T01:59:57.582Z,0.00
2019-03-12T02:00:57.569Z,0.00
2019-03-12T02:01:57.559Z,0.00
2019-03-12T02:02:57.547Z,0.00
2019-03-12T02:03:57.538Z,0.00
2019-03-12T02:04:57.526Z,0.00
2019-03-12T02:05:57.516Z,0.00
2019-03-12T02:06:57.689Z,0.00
2019-03-12T02:07:57.495Z,0.00
2019-03-12T02:08:57.482Z,0.00
2019-03-12T02:09:57.473Z,0.00
2019-03-12T02:10:57.461Z,0.00
2019-03-12T02:11:57.452Z,0.00
2019-03-12T02:12:57.438Z,0.00
2019-03-12T02:13:57.429Z,0.00
2019-03-12T02:14:57.417Z,0.00
2019-03-12T02:15:57.407Z,0.00
2019-03-12T02:16:57.397Z,0.00
2019-03-12T02:17:57.636Z,0.00
2019-03-12T02:18:57.400Z,0.00
2019-03-12T02:19:57.363Z,0.00
2019-03-12T02:20:57.354Z,0.00
2019-03-12T02:21:57.341Z,0.00
2019-03-12T02:22:57.331Z,0.00
2019-03-12T02:23:57.327Z,0.00
2019-03-12T02:24:57.307Z,0.00
2019-03-12T02:25:57.299Z,0.00
2019-03-12T02:26:57.284Z,0.00
2019-03-12T02:27:57.276Z,0.00
2019-03-12T02:28:57.263Z,0.00
2019-03-12T02:29:57.260Z,0.00
2019-03-12T02:30:57.247Z,0.00
2019-03-12T02:31:57.233Z,0.00
2019-03-12T02:32:57.243Z,0.00
2019-03-12T02:33:57.225Z,0.00
2019-03-12T02:37:27.876Z,0.00
2019-03-12T02:38:27.865Z,0.00
2019-03-12T02:39:27.865Z,0.00
2019-03-12T02:40:27.845Z,0.00
2019-03-12T02:41:27.837Z,0.00
2019-03-12T02:42:27.822Z,0.00
2019-03-12T02:43:27.808Z,0.00
2019-03-12T02:45:15.212Z,0.00
2019-03-12T02:46:15.205Z,0.00
2019-03-12T02:47:15.220Z,0.00
2019-03-12T02:48:15.188Z,0.00
2019-03-12T02:49:15.185Z,0.00
2019-03-12T02:50:15.160Z,0.00
2019-03-12T02:51:15.145Z,0.00
2019-03-12T02:52:15.136Z,0.00
2019-03-12T02:53:15.124Z,0.00
2019-03-12T02:54:15.112Z,0.00
2019-03-12T02:55:15.101Z,0.00
2019-03-12T02:56:15.091Z,0.00
2019-03-12T02:57:15.079Z,0.00
2019-03-12T02:58:15.069Z,0.00
2019-03-12T02:59:15.056Z,0.00
2019-03-12T03:00:15.048Z,0.00
2019-03-12T03:01:15.035Z,0.00
2019-03-12T03:02:15.024Z,0.00
2019-03-12T03:04:15.007Z,0.00
2019-03-12T03:05:15.013Z,0.00
2019-03-12T03:11:11.444Z,0.00
2019-03-12T03:12:11.449Z,0.00
2019-03-12T03:13:11.429Z,0.00
2019-03-12T03:14:11.410Z,0.00
2019-03-12T03:15:11.402Z,0.00
2019-03-12T03:16:11.398Z,0.00
2019-03-12T03:17:11.394Z,0.00
2019-03-12T03:19:31.458Z,0.00
2019-03-12T03:20:31.459Z,0.00
2019-03-12T03:22:28.797Z,0.00
2019-03-12T03:23:28.787Z,0.00
2019-03-12T03:24:28.774Z,0.00
2019-03-12T03:25:28.766Z,0.00
2019-03-12T03:26:28.753Z,0.00
2019-03-12T03:27:29.530Z,0.00
2019-03-12T03:28:28.729Z,0.00
2019-03-12T03:29:28.727Z,0.00
2019-03-12T03:30:32.542Z,0.00
2019-03-12T03:31:28.702Z,0.00
2019-03-12T03:32:28.701Z,0.00
2019-03-12T03:47:57.179Z,0.00
2019-03-12T03:48:57.172Z,0.00
2019-03-12T03:49:57.159Z,0.00
2019-03-12T03:50:57.301Z,0.00
2019-03-12T03:51:57.152Z,0.00
2019-03-12T03:52:57.124Z,0.00
2019-03-12T03:53:57.112Z,0.00
2019-03-12T03:54:57.101Z,0.00
2019-03-12T03:55:57.089Z,0.00
2019-03-12T03:56:57.079Z,0.00
2019-03-12T03:57:57.066Z,0.00
2019-03-12T03:58:57.055Z,0.00
2019-03-12T03:59:57.042Z,0.00
2019-03-12T04:00:57.032Z,0.00
2019-03-12T04:01:57.018Z,0.00
2019-03-12T04:02:57.014Z,0.00
2019-03-12T04:04:54.440Z,0.00
2019-03-12T04:05:54.422Z,0.00
2019-03-12T04:06:54.405Z,0.00
2019-03-12T04:09:01.848Z,0.00
2019-03-12T04:10:01.850Z,0.00
2019-03-12T04:11:44.226Z,0.00
2019-03-12T04:15:29.050Z,0.00
2019-03-12T04:16:32.469Z,0.00
2019-03-12T04:25:04.480Z,0.00
2019-03-12T04:26:04.467Z,0.00
2019-03-12T04:27:04.467Z,0.00
2019-03-12T04:28:04.451Z,0.00
2019-03-12T04:29:04.432Z,0.00
2019-03-12T04:30:04.419Z,0.00
2019-03-12T04:50:01.977Z,0.00
2019-03-12T04:51:01.866Z,0.00
2019-03-12T05:19:45.798Z,0.00
2019-03-12T05:20:43.160Z,0.00
2019-03-12T05:21:44.956Z,0.00
2019-03-12T05:23:30.548Z,0.00
2019-03-12T05:24:30.535Z,0.00
2019-03-12T05:25:30.532Z,0.00
2019-03-12T05:26:30.512Z,0.00
2019-03-12T05:27:30.499Z,0.00
2019-03-12T05:28:30.488Z,4.00
2019-03-12T05:29:30.474Z,0.00
2019-03-12T05:30:30.469Z,4.00
2019-03-12T08:58:53.922Z,2852.00
2019-03-12T08:59:53.917Z,2944.00
2019-03-12T09:00:53.904Z,3016.00
2019-03-12T09:01:53.898Z,3024.00
2019-03-12T09:02:53.887Z,3012.00
2019-03-12T09:03:53.880Z,2964.00
2019-03-12T09:04:53.870Z,2872.00
2019-03-12T09:05:53.868Z,2836.00
2019-03-12T09:06:53.853Z,2828.00
2019-03-12T09:07:53.850Z,2868.00
2019-03-12T09:08:53.849Z,2916.00
2019-03-12T09:09:53.830Z,2944.00
2019-03-12T09:10:53.820Z,2944.00
2019-03-12T09:11:53.812Z,2936.00
2019-03-12T09:12:53.803Z,2908.00
2019-03-12T09:13:53.796Z,2836.00
2019-03-12T09:21:03.899Z,2372.00
2019-03-12T09:24:26.697Z,2584.00
2019-03-12T09:25:26.688Z,2704.00
2019-03-12T09:26:26.675Z,2812.00
2019-03-12T09:32:25.711Z,2976.00
2019-03-12T09:33:25.698Z,2972.00
2019-03-12T09:34:25.686Z,2996.00
2019-03-12T09:35:25.682Z,3040.00
2019-03-12T09:36:25.671Z,3048.00
2019-03-12T09:37:25.665Z,3020.00
2019-03-12T09:38:25.654Z,3092.00
2019-03-12T09:39:25.649Z,3116.00
2019-03-12T09:40:25.641Z,3140.00
2019-03-12T09:41:25.634Z,3164.00
2019-03-12T09:42:25.623Z,3204.00
2019-03-12T09:43:25.617Z,3232.00
2019-03-12T09:44:25.607Z,3188.00
2019-03-12T09:49:27.581Z,3420.00
2019-03-12T09:50:26.109Z,3472.00
2019-03-12T09:51:26.097Z,3492.00
2019-03-12T09:52:26.095Z,3528.00
2019-03-12T09:53:26.081Z,3496.00
2019-03-12T09:54:26.076Z,3456.00
2019-03-12T09:55:26.068Z,3484.00
2019-03-12T10:02:42.566Z,3828.00
2019-03-12T12:30:30.486Z,3200.00
2019-03-12T12:31:30.480Z,3144.00
2019-03-12T12:32:30.472Z,2956.00
2019-03-12T13:33:36.511Z,3400.00
2019-03-12T13:34:36.505Z,3528.00
2019-03-12T13:35:36.497Z,3668.00
2019-03-12T13:39:02.225Z,3556.00
2019-03-12T13:40:02.217Z,3664.00
2019-03-12T13:41:03.448Z,3688.00
2019-03-12T13:42:02.233Z,3840.00
2019-03-12T13:43:02.152Z,3984.00
2019-03-12T13:44:02.151Z,4248.00
2019-03-12T13:45:02.383Z,4156.00
2019-03-12T13:46:02.135Z,4192.00
2019-03-12T13:47:02.124Z,4032.00
2019-03-12T13:48:02.752Z,4024.00
2019-03-12T13:49:02.112Z,4224.00
2019-03-12T13:50:02.424Z,4604.00
2019-03-12T13:51:02.202Z,4356.00
2019-03-12T13:52:02.097Z,4656.00
2019-03-12T13:53:02.198Z,4580.00
2019-03-12T13:54:02.085Z,4904.00
2019-03-12T13:55:02.677Z,5028.00
2019-03-12T13:56:02.164Z,5500.00
2019-03-12T13:57:02.070Z,4984.00
2019-03-12T13:58:02.070Z,4536.00
2019-03-12T13:59:02.054Z,4676.00
2019-03-12T14:04:21.023Z,3508.00
2019-03-12T14:05:21.019Z,3304.00
2019-03-12T14:06:21.012Z,3256.00
2019-03-12T14:07:21.008Z,4212.00
2019-03-12T14:08:21.005Z,3808.00
2019-03-12T14:16:08.326Z,2928.00
2019-03-12T14:17:08.686Z,2864.00
2019-03-12T14:29:52.770Z,2572.00
2019-03-12T14:30:52.765Z,2548.00
2019-03-12T14:31:52.758Z,2512.00
2019-03-12T14:32:52.753Z,2464.00
2019-03-12T14:33:52.745Z,2440.00
2019-03-12T14:34:52.739Z,2412.00
2019-03-12T14:35:52.730Z,2396.00
2019-03-12T14:36:52.726Z,2344.00
2019-03-12T14:37:52.721Z,2296.00
2019-03-12T14:38:52.715Z,2248.00
2019-03-12T14:39:52.706Z,2208.00
2019-03-12T14:40:52.703Z,2112.00
2019-03-12T14:41:52.694Z,2036.00
2019-03-12T14:42:52.708Z,1956.00
2019-03-12T14:43:52.682Z,1888.00
2019-03-12T14:44:52.679Z,1856.00
2019-03-12T14:45:52.672Z,1780.00
2019-03-12T14:46:52.667Z,1704.00
2019-03-12T14:47:52.658Z,1636.00
2019-03-12T14:48:52.675Z,1568.00
2019-03-12T14:49:52.647Z,1500.00
2019-03-12T14:50:52.643Z,1472.00
2019-03-12T14:51:52.635Z,1428.00
2019-03-12T14:52:52.631Z,1400.00
2019-03-12T14:53:52.633Z,1344.00
2019-03-12T14:54:52.620Z,1260.00
2019-03-12T14:55:52.813Z,1208.00
2019-03-12T14:56:52.640Z,1172.00
2019-03-12T14:57:52.602Z,1140.00
2019-03-12T14:58:52.597Z,1096.00
2019-03-12T14:59:52.589Z,1060.00
2019-03-12T15:01:52.578Z,956.00
2019-03-12T15:02:52.570Z,936.00
2019-03-12T15:03:52.567Z,908.00
2019-03-12T15:04:52.564Z,896.00
2019-03-12T17:39:44.513Z,4.00
2019-03-12T17:40:44.456Z,4.00
2019-03-12T17:55:14.832Z,0.00
2019-03-12T17:56:14.827Z,0.00
2019-03-12T17:57:14.819Z,0.00
2019-03-12T17:58:14.814Z,0.00
2019-03-12T17:59:14.805Z,0.00
